Friday, November 16, 2018, 1:10 AM GMT
Back to Local

CYTR, Trenton, Ont.

Location: , , Canada Lat: 44.117
Local Time: 1:10 AM GMT ( 1:10 GMT) Lon: -77.533
Time Zone: GMT Elev: 278 ft

Show me the last for .
Show Decoded

2018-11-16 00:00 METAR CYTR 160000Z 10006KT 1 1/2SM -SN OVC009 M01/M01 A3015 RMK SN4SF4 VIS VRB
                 1-2 CIG VRB 6-12 /S01/ SLP214 =
2018-11-15 23:26 METAR CYTR 152326Z 09004KT 1 1/2SM -SN OVC005 M01/M01 A3016 RMK SN3SF5 VIS VRB
                 1-2 CIG VRB 3-7 /S01/ SLP220 =
2018-11-15 23:00 METAR CYTR 152300Z 10003KT 1 1/2SM -SN OVC010 M01/M01 A3018 RMK SN3SF5 VIS VRB
                 1-2 SLP226 =
2018-11-15 22:33 METAR CYTR 152233Z CCA 12004KT 3SM -SN OVC010 M00/M03 A3019 RMK SN5SF3 SLP229 =
2018-11-15 22:25 METAR CYTR 152225Z 13005KT 6SM -SN BKN015 OVC025 00/M04 A3020 RMK SF5SC3 SLP231
                 =
2018-11-15 22:18 METAR CYTR 152218Z 12005KT 12SM -SN FEW025 OVC100 00/M04 A3020 RMK SC2AC6 SLP232
                 =
2018-11-15 22:00 METAR CYTR 152200Z 13005KT 15SM FEW025 OVC100 01/M04 A3020 RMK SC1AC7 SLP234 =
2018-11-15 21:00 METAR CYTR 152100Z 14006KT 15SM FEW026 OVC100 00/M05 A3022 RMK SC2AC6 SLP240 =
2018-11-15 20:00 METAR CYTR 152000Z 12007KT 15SM SCT028 OVC100 00/M06 A3025 RMK SC3AC5 SLP249 =
2018-11-15 19:00 METAR CYTR 151900Z 13007KT 15SM FEW028 OVC100 00/M07 A3028 RMK SC2AC6 SLP260 =
2018-11-15 18:00 METAR CYTR 151800Z 11007KT 15SM FEW028 BKN100 OVC250 00/M07 A3028 RMK SC1AC4CI3
                 PRESFR SLP259 =
2018-11-15 17:00 METAR CYTR 151700Z 10008KT 15SM FEW028 SCT090 OVC250 M00/M07 A3035 RMK SC2AC2CI4
                 PRESFR SLP282 =
2018-11-15 16:00 METAR CYTR 151600Z 08007KT 15SM SCT028 OVC090 M02/M07 A3040 RMK SC3AC5 SLP302 =
2018-11-15 15:00 METAR CYTR 151500Z 07006KT 15SM BKN028 OVC090 M04/M08 A3046 RMK SC6AC2 SLP319 =
2018-11-15 14:00 METAR CYTR 151400Z 06007KT 15SM FEW025 OVC250 M06/M10 A3048 RMK SC2CI6 SLP329 =
2018-11-15 13:00 METAR CYTR 151300Z 06008KT 15SM FEW025 OVC250 M07/M11 A3051 RMK SC2CI6 SLP338 =
2018-11-15 12:00 METAR CYTR 151200Z 05007KT 15SM FEW025 OVC250 M07/M11 A3052 RMK SC2CI6 SLP343 =
2018-11-15 11:00 METAR CYTR 151100Z 05008KT 15SM FEW027 OVC250 M08/M12 A3051 RMK SC2CI6 SLP339 =
2018-11-15 10:00 METAR CYTR 151000Z 05007KT 15SM FEW023 OVC250 M08/M13 A3054 RMK SC1CI8 SLP348 =
2018-11-15 09:00 METAR CYTR 150900Z 05007KT 15SM FEW023 BKN250 M08/M13 A3056 RMK SC1CI4 SLP356 =
2018-11-15 08:00 METAR CYTR 150800Z 06006KT 15SM FEW023 SCT250 M08/M12 A3058 RMK SC2CI2 SLP362 =
2018-11-15 07:00 METAR CYTR 150700Z 06005KT 15SM FEW030 OVC250 M08/M12 A3059 RMK SC1CI8 SLP364 =
2018-11-15 06:00 METAR CYTR 150600Z 05006KT 15SM FEW030 OVC250 M08/M11 A3059 RMK SC1CI8 SLP366 =
2018-11-15 05:00 METAR CYTR 150500Z 06005KT 15SM OVC250 M07/M12 A3059 RMK CI8 SLP365 =
2018-11-15 04:00 METAR CYTR 150400Z 04004KT 15SM OVC250 M08/M11 A3059 RMK CI8 SLP367 =
2018-11-15 03:00 METAR CYTR 150300Z 35002KT 15SM BKN250 M08/M11 A3059 RMK CI6 SLP366 =
2018-11-15 02:00 METAR CYTR 150200Z 34003KT 15SM SCT250 M07/M12 A3058 RMK CI4 SLP363 =

Support USWX by starting your Amazon purchase here.